createdAt,value
2022-11-09T00:01:48.741Z,97736.22
2022-11-09T00:04:21.406Z,97740.38
2022-11-09T00:06:51.509Z,97748.59
2022-11-09T00:09:21.784Z,97745.47
2022-11-09T00:11:52.287Z,97743.19
2022-11-09T00:14:22.874Z,97737.66
2022-11-09T00:16:53.062Z,97741.97
2022-11-09T00:19:25.853Z,97739.22
2022-11-09T00:21:56.649Z,97736.88
2022-11-09T00:24:26.741Z,97731.59
2022-11-09T00:26:56.822Z,97736.88
2022-11-09T00:29:26.855Z,97731.41
2022-11-09T00:31:56.856Z,97733.38
2022-11-09T00:34:29.457Z,97733.00
2022-11-09T00:36:59.888Z,97726.75
2022-11-09T00:39:29.933Z,97729.09
2022-11-09T00:42:01.653Z,97731.00
2022-11-09T00:44:33.236Z,97728.66
2022-11-09T00:47:03.316Z,97722.78
2022-11-09T00:49:36.033Z,97729.03
2022-11-09T00:52:06.101Z,97723.94
2022-11-09T00:54:36.096Z,97730.59
2022-11-09T00:57:06.239Z,97722.78
2022-11-09T00:59:36.340Z,97724.34
2022-11-09T01:02:07.076Z,97729.41
2022-11-09T01:04:40.219Z,97727.03
2022-11-09T01:07:11.033Z,97728.59
2022-11-09T01:09:42.209Z,97723.72
2022-11-09T01:12:12.205Z,97718.84
2022-11-09T01:14:42.296Z,97723.94
2022-11-09T01:17:12.332Z,97728.44
2022-11-09T01:19:45.226Z,97725.72
2022-11-09T01:22:15.473Z,97724.34
2022-11-09T01:24:45.601Z,97735.91
2022-11-09T01:27:16.406Z,97735.13
2022-11-09T01:29:46.506Z,97729.41
2022-11-09T01:32:16.631Z,97740.09
2022-11-09T01:34:50.344Z,97732.91
2022-11-09T01:37:20.816Z,97735.28
2022-11-09T01:39:50.975Z,97735.66
2022-11-09T01:42:27.446Z,97724.13
2022-11-09T01:45:28.820Z,97728.19
2022-11-09T01:48:08.036Z,97722.97
2022-11-09T01:50:47.440Z,97718.69
2022-11-09T01:53:23.303Z,97714.50
2022-11-09T01:55:58.594Z,97718.25
2022-11-09T01:58:35.432Z,97716.13
2022-11-09T02:01:11.187Z,97704.59
2022-11-09T02:03:48.651Z,97710.41
2022-11-09T02:06:26.652Z,97711.03
2022-11-09T02:09:12.600Z,97709.72
2022-11-09T02:11:43.768Z,97714.88
2022-11-09T02:14:15.599Z,97709.97
2022-11-09T02:16:49.620Z,97718.41
2022-11-09T02:19:19.750Z,97716.88
2022-11-09T02:21:54.492Z,97710.84
2022-11-09T02:24:27.607Z,97703.81
2022-11-09T02:26:58.278Z,97706.56
2022-11-09T02:29:37.295Z,97707.97
2022-11-09T02:32:14.806Z,97705.25
2022-11-09T02:34:44.835Z,97716.63
2022-11-09T02:37:29.734Z,97714.63
2022-11-09T02:40:03.301Z,97714.25
2022-11-09T02:42:34.543Z,97715.41
2022-11-09T02:45:05.827Z,97719.91
2022-11-09T02:47:36.540Z,97726.06
2022-11-09T02:50:09.960Z,97734.47
2022-11-09T02:52:42.595Z,97731.16
2022-11-09T02:55:13.794Z,97731.53
2022-11-09T02:57:44.211Z,97725.63
2022-11-09T03:00:18.121Z,97727.03
2022-11-09T03:02:48.307Z,97730.72
2022-11-09T03:05:19.502Z,97730.75
2022-11-09T03:07:52.341Z,97739.75
2022-11-09T03:10:23.126Z,97735.25
2022-11-09T03:12:53.975Z,97742.41
2022-11-09T03:15:24.005Z,97756.72
2022-11-09T03:17:54.315Z,97762.63
2022-11-09T03:20:25.270Z,97764.66
2022-11-09T03:23:01.908Z,97754.91
2022-11-09T03:25:34.038Z,97753.69
2022-11-09T03:28:08.198Z,97752.50
2022-11-09T03:30:38.595Z,97763.38
2022-11-09T03:33:12.671Z,97753.63
2022-11-09T03:35:44.185Z,97756.47
2022-11-09T03:38:19.031Z,97771.66
2022-11-09T03:40:50.418Z,97780.28
2022-11-09T03:43:21.313Z,97787.78
2022-11-09T03:45:51.813Z,97783.34
2022-11-09T03:48:23.152Z,97783.13
2022-11-09T03:50:53.366Z,97794.09
2022-11-09T03:53:26.057Z,97784.69
2022-11-09T03:55:56.303Z,97789.72
2022-11-09T03:58:26.584Z,97788.97
2022-11-09T04:00:57.285Z,97785.03
2022-11-09T04:03:28.779Z,97793.81
2022-11-09T04:06:00.994Z,97788.41
2022-11-09T04:08:33.833Z,97792.50
2022-11-09T04:11:03.993Z,97792.47
2022-11-09T04:13:34.095Z,97796.22
2022-11-09T04:16:04.118Z,97800.22
2022-11-09T04:18:34.632Z,97805.34
2022-11-09T04:21:04.842Z,97803.69
2022-11-09T04:23:37.642Z,97809.53
2022-11-09T04:26:07.949Z,97808.97
2022-11-09T04:28:38.021Z,97806.22
2022-11-09T04:31:08.441Z,97808.78
2022-11-09T04:33:38.619Z,97816.19
2022-11-09T04:36:09.623Z,97816.78
2022-11-09T04:38:42.263Z,97823.59
2022-11-09T04:41:12.376Z,97819.69
2022-11-09T04:43:42.417Z,97829.09
2022-11-09T04:46:12.481Z,97824.19
2022-11-09T04:48:42.640Z,97821.44
2022-11-09T04:51:13.985Z,97830.25
2022-11-09T04:53:46.553Z,97814.97
2022-11-09T04:56:16.643Z,97820.44
2022-11-09T04:58:47.468Z,97814.91
2022-11-09T05:01:18.332Z,97804.00
2022-11-09T05:03:48.363Z,97802.09
2022-11-09T05:06:42.843Z,97799.34
2022-11-09T05:09:15.578Z,97789.78
2022-11-09T05:11:45.655Z,97786.41
2022-11-09T05:14:15.652Z,97784.31
2022-11-09T05:16:45.832Z,97784.53
2022-11-09T05:19:16.055Z,97775.13
2022-11-09T05:21:46.220Z,97772.16
2022-11-09T05:24:16.309Z,97771.81
2022-11-09T05:26:46.386Z,97778.44
2022-11-09T05:29:16.827Z,97797.69
2022-11-09T05:31:51.943Z,97790.50
2022-11-09T05:34:22.511Z,97788.03
2022-11-09T05:36:52.498Z,97785.06
2022-11-09T05:39:25.426Z,97776.34
2022-11-09T05:41:55.509Z,97774.84
2022-11-09T05:44:25.819Z,97769.44
2022-11-09T05:46:55.841Z,97766.25
2022-11-09T05:49:25.832Z,97772.25
2022-11-09T05:51:55.976Z,97766.03
2022-11-09T05:54:28.594Z,97765.66
2022-11-09T05:56:58.617Z,97759.81
2022-11-09T05:59:28.794Z,97766.97
2022-11-09T06:01:59.423Z,97754.50
2022-11-09T06:04:29.478Z,97755.50
2022-11-09T06:06:59.706Z,97755.84
2022-11-09T06:09:32.337Z,97750.38
2022-11-09T06:12:02.706Z,97756.25
2022-11-09T06:14:32.784Z,97763.25
2022-11-09T06:17:02.921Z,97766.03
2022-11-09T06:19:32.885Z,97766.44
2022-11-09T06:22:02.878Z,97768.03
2022-11-09T06:24:35.557Z,97774.69
2022-11-09T06:27:05.627Z,97780.16
2022-11-09T06:29:36.000Z,97785.97
2022-11-09T06:32:06.613Z,97782.13
2022-11-09T06:34:36.662Z,97785.06
2022-11-09T06:37:06.631Z,97779.84
2022-11-09T06:39:39.543Z,97790.81
2022-11-09T06:42:09.674Z,97800.97
2022-11-09T06:44:39.929Z,97795.47
2022-11-09T06:47:10.007Z,97806.69
2022-11-09T06:49:40.140Z,97813.16
2022-11-09T06:52:10.553Z,97807.91
2022-11-09T06:54:43.219Z,97812.47
2022-11-09T06:57:13.289Z,97816.78
2022-11-09T06:59:43.554Z,97824.63
2022-11-09T07:02:20.346Z,97827.56
2022-11-09T07:04:50.421Z,97829.78
2022-11-09T07:07:26.434Z,97839.38
2022-11-09T07:10:00.541Z,97838.97
2022-11-09T07:12:30.761Z,97833.09
2022-11-09T07:15:00.854Z,97827.44
2022-11-09T07:17:33.677Z,97836.47
2022-11-09T07:20:04.014Z,97836.69
2022-11-09T07:22:34.932Z,97852.19
2022-11-09T07:25:09.885Z,97846.38
2022-11-09T07:27:40.149Z,97852.66
2022-11-09T07:30:12.700Z,97864.81
2022-11-09T07:33:08.017Z,97866.38
2022-11-09T07:35:34.091Z,97876.75
2022-11-09T07:38:04.720Z,97908.97
2022-11-09T07:40:37.615Z,97930.34
2022-11-09T07:43:09.711Z,97935.59
2022-11-09T07:45:41.974Z,97936.34
2022-11-09T07:48:15.299Z,97932.66
2022-11-09T07:50:45.636Z,97929.22
2022-11-09T07:53:18.305Z,97926.59
2022-11-09T07:56:00.352Z,97918.44
2022-11-09T07:58:31.299Z,97896.50
2022-11-09T08:01:01.473Z,97894.56
2022-11-09T08:03:31.516Z,97891.44
2022-11-09T08:06:01.558Z,97890.31
2022-11-09T08:08:31.554Z,97897.75
2022-11-09T08:11:04.160Z,97899.75
2022-11-09T08:13:34.223Z,97909.53
2022-11-09T08:16:05.510Z,97904.44
2022-11-09T08:18:35.644Z,97911.31
2022-11-09T08:21:06.676Z,97920.34
2022-11-09T08:23:36.992Z,97911.50
2022-11-09T08:26:10.337Z,97910.31
2022-11-09T08:28:41.079Z,97917.34
2022-11-09T08:31:12.621Z,97920.28
2022-11-09T08:33:44.435Z,97929.28
2022-11-09T08:36:17.898Z,97930.47
2022-11-09T08:38:48.936Z,97927.13
2022-11-09T08:41:21.555Z,97915.38
2022-11-09T08:43:51.576Z,97927.94
2022-11-09T08:46:21.638Z,97936.56
2022-11-09T08:48:51.625Z,97927.72
2022-11-09T08:51:22.024Z,97933.19
2022-11-09T08:53:52.066Z,97935.72
2022-11-09T08:56:24.725Z,97928.59
2022-11-09T08:58:54.822Z,97938.41
2022-11-09T09:01:25.422Z,97938.75
2022-11-09T09:03:55.531Z,97922.25
2022-11-09T09:06:30.670Z,97921.66
2022-11-09T09:09:01.295Z,97916.13
2022-11-09T09:11:33.903Z,97921.78
2022-11-09T09:14:03.922Z,97925.22
2022-11-09T09:16:34.097Z,97919.69
2022-11-09T09:19:04.257Z,97920.09
2022-11-09T09:21:34.408Z,97921.28
2022-11-09T09:24:04.643Z,97911.13
2022-11-09T09:26:37.771Z,97911.03
2022-11-09T09:29:08.163Z,97918.50
2022-11-09T09:31:38.171Z,97938.00
2022-11-09T09:34:08.728Z,97929.91
2022-11-09T09:36:42.034Z,97933.41
2022-11-09T09:39:15.302Z,97934.00
2022-11-09T09:41:54.363Z,97939.53
2022-11-09T09:44:33.141Z,97943.59
2022-11-09T09:47:16.203Z,97932.06
2022-11-09T09:49:52.827Z,97939.25
2022-11-09T09:52:30.528Z,97929.16
2022-11-09T09:55:10.356Z,97922.97
2022-11-09T09:57:46.029Z,97920.78
2022-11-09T10:00:25.928Z,97928.63
2022-11-09T10:02:57.851Z,97929.25
2022-11-09T10:05:46.788Z,97933.38
2022-11-09T10:08:35.673Z,97934.38
2022-11-09T10:11:22.208Z,97930.22
2022-11-09T10:14:20.908Z,97927.03
2022-11-09T10:17:03.789Z,97934.03
2022-11-09T10:19:57.791Z,97921.91
2022-11-09T10:22:38.767Z,97913.13
2022-11-09T10:25:27.482Z,97916.97
2022-11-09T10:28:12.799Z,97919.06
2022-11-09T10:30:46.680Z,97915.94
2022-11-09T10:33:21.679Z,97917.38
2022-11-09T10:36:05.313Z,97918.53
2022-11-09T10:38:46.516Z,97911.44
2022-11-09T10:41:42.172Z,97899.19
2022-11-09T10:44:30.698Z,97896.50
2022-11-09T10:47:22.897Z,97888.78
2022-11-09T10:50:29.341Z,97879.09
2022-11-09T10:53:21.262Z,97876.22
2022-11-09T10:56:21.229Z,97877.25
2022-11-09T10:59:51.867Z,97876.34
2022-11-09T11:02:53.329Z,97870.16
2022-11-09T11:05:42.475Z,97878.63
2022-11-09T11:08:42.472Z,97872.34
2022-11-09T11:11:35.608Z,97868.59
2022-11-09T11:14:35.174Z,97868.78
2022-11-09T11:17:30.778Z,97870.47
2022-11-09T11:20:37.452Z,97868.06
2022-11-09T11:23:28.239Z,97866.56
2022-11-09T11:26:40.624Z,97855.38
2022-11-09T11:29:49.670Z,97860.00
2022-11-09T11:32:38.514Z,97856.06
2022-11-09T11:35:42.736Z,97848.56
2022-11-09T11:38:40.032Z,97853.81
2022-11-09T11:41:50.710Z,97853.03
2022-11-09T11:45:12.802Z,97849.19
2022-11-09T11:48:35.718Z,97852.81
2022-11-09T11:51:40.400Z,97856.47
2022-11-09T11:54:47.779Z,97847.31
2022-11-09T11:57:50.266Z,97847.31
2022-11-09T12:00:49.203Z,97847.25
2022-11-09T12:04:04.144Z,97845.63
2022-11-09T12:07:29.092Z,97845.88
2022-11-09T12:10:38.291Z,97840.25
2022-11-09T12:13:55.025Z,97829.50
2022-11-09T12:16:55.500Z,97833.22
2022-11-09T12:20:05.923Z,97833.84
2022-11-09T12:23:20.250Z,97828.19
2022-11-09T12:26:27.025Z,97815.06
2022-11-09T12:29:24.392Z,97818.22
2022-11-09T12:32:31.798Z,97823.44
2022-11-09T12:35:36.658Z,97819.19
2022-11-09T12:38:34.069Z,97809.06
2022-11-09T12:41:30.278Z,97804.13
2022-11-09T12:44:26.856Z,97810.97
2022-11-09T12:47:22.497Z,97807.63
2022-11-09T12:50:17.566Z,97802.88
2022-11-09T12:53:08.122Z,97799.34
2022-11-09T12:56:05.740Z,97807.53
2022-11-09T12:58:54.523Z,97806.09
2022-11-09T13:01:57.693Z,97802.16
2022-11-09T13:05:00.799Z,97801.06
2022-11-09T13:07:54.371Z,97798.31
2022-11-09T13:10:43.521Z,97803.03
2022-11-09T13:13:35.079Z,97808.75
2022-11-09T13:16:38.849Z,97808.22
2022-11-09T13:19:56.924Z,97804.03
2022-11-09T13:23:03.111Z,97804.38
2022-11-09T13:25:55.481Z,97806.56
2022-11-09T13:29:34.550Z,97814.22
2022-11-09T13:32:31.765Z,97814.34
2022-11-09T13:36:01.905Z,97809.50
2022-11-09T13:39:32.384Z,97819.25
2022-11-09T13:42:36.213Z,97820.09
2022-11-09T13:45:32.688Z,97823.91
2022-11-09T13:48:45.231Z,97824.31
2022-11-09T13:51:49.509Z,97827.16
2022-11-09T13:54:40.341Z,97836.88
2022-11-09T13:57:30.320Z,97841.13
2022-11-09T14:00:25.727Z,97835.94
2022-11-09T14:03:25.774Z,97831.56
2022-11-09T14:06:16.704Z,97837.69
2022-11-09T14:09:06.829Z,97843.41
2022-11-09T14:12:23.316Z,97842.94
2022-11-09T14:15:38.183Z,97847.16
2022-11-09T14:18:42.714Z,97856.66
2022-11-09T14:21:47.850Z,97853.19
2022-11-09T14:24:40.810Z,97860.75
2022-11-09T14:27:29.243Z,97864.91
2022-11-09T14:30:25.052Z,97861.44
2022-11-09T14:33:28.284Z,97866.63
2022-11-09T14:36:17.155Z,97874.19
2022-11-09T14:39:23.881Z,97867.50
2022-11-09T14:42:22.107Z,97882.09
2022-11-09T14:45:18.165Z,97885.31
2022-11-09T14:48:08.225Z,97883.84
2022-11-09T14:51:00.669Z,97887.28
2022-11-09T14:53:51.641Z,97891.50
2022-11-09T14:56:45.056Z,97894.72
2022-11-09T14:59:36.948Z,97892.44
2022-11-09T15:02:27.436Z,97894.66
2022-11-09T15:05:39.739Z,97898.06
2022-11-09T15:08:28.533Z,97898.16
2022-11-09T15:11:17.027Z,97904.63
2022-11-09T15:14:29.459Z,97906.63
2022-11-09T15:17:25.636Z,97902.78
2022-11-09T15:20:34.656Z,97909.13
2022-11-09T15:23:38.700Z,97907.59
2022-11-09T15:26:38.590Z,97902.91
2022-11-09T15:29:41.669Z,97899.66
2022-11-09T15:32:30.565Z,97900.69
2022-11-09T15:35:21.352Z,97899.78
2022-11-09T15:38:32.023Z,97901.56
2022-11-09T15:41:23.978Z,97896.88
2022-11-09T15:44:17.181Z,97904.38
2022-11-09T15:53:58.230Z,97921.47
2022-11-09T15:56:47.289Z,97915.00
2022-11-09T15:59:36.033Z,97915.41
2022-11-09T16:02:27.536Z,97920.22
2022-11-09T16:05:16.550Z,97918.06
2022-11-09T16:08:07.652Z,97919.63
2022-11-09T16:10:56.612Z,97929.25
2022-11-09T16:18:10.739Z,97928.13
2022-11-09T16:20:59.902Z,97934.44
2022-11-09T16:23:48.785Z,97933.66
2022-11-09T16:26:37.418Z,97940.97
2022-11-09T16:29:30.292Z,97943.72
2022-11-09T16:32:18.676Z,97943.88
2022-11-09T16:35:28.934Z,97951.97
2022-11-09T16:38:19.079Z,97955.31
2022-11-09T16:41:08.960Z,97960.41
2022-11-09T16:43:59.466Z,97964.75
2022-11-09T16:46:52.221Z,97972.00
2022-11-09T16:49:41.667Z,97972.97
2022-11-09T16:52:33.057Z,97982.00
2022-11-09T16:55:22.133Z,97985.75
2022-11-09T16:58:10.839Z,97993.47
2022-11-09T17:01:17.859Z,97994.31
2022-11-09T17:04:08.588Z,97994.50
2022-11-09T17:06:57.310Z,98001.38
2022-11-09T17:09:48.580Z,98007.09
2022-11-09T17:12:37.512Z,98008.84
2022-11-09T17:15:26.535Z,98010.59
2022-11-09T17:18:16.125Z,98015.16
2022-11-09T17:21:04.873Z,98012.22
2022-11-09T17:23:54.393Z,98022.44
2022-11-09T17:26:45.636Z,98023.44
2022-11-09T17:29:34.502Z,98023.25
2022-11-09T17:32:27.355Z,98024.03
2022-11-09T17:35:16.151Z,98024.84
2022-11-09T17:38:05.257Z,98028.41
2022-11-09T17:40:54.503Z,98042.75
2022-11-09T17:43:47.853Z,98037.25
2022-11-09T17:46:36.547Z,98041.75
2022-11-09T17:49:25.191Z,98047.28
2022-11-09T17:52:13.954Z,98048.84
2022-11-09T17:55:02.793Z,98051.97
2022-11-09T17:57:51.558Z,98048.06
2022-11-09T18:00:43.109Z,98057.50
2022-11-09T18:03:35.012Z,98061.25
2022-11-09T18:06:26.277Z,98048.88
2022-11-09T18:09:40.151Z,98051.22
2022-11-09T18:12:25.662Z,98057.72
2022-11-09T18:15:14.583Z,98061.88
2022-11-09T18:18:06.074Z,98070.13
2022-11-09T18:20:54.582Z,98083.09
2022-11-09T18:23:44.014Z,98085.84
2022-11-09T18:26:34.335Z,98076.41
2022-11-09T18:29:23.129Z,98091.53
2022-11-09T18:32:11.827Z,98098.59
2022-11-09T18:35:03.114Z,98101.56
2022-11-09T18:37:51.605Z,98094.66
2022-11-09T18:40:40.176Z,98095.28
2022-11-09T18:43:28.662Z,98089.56
2022-11-09T18:46:20.918Z,98092.94
2022-11-09T18:49:14.048Z,98098.63
2022-11-09T18:52:06.878Z,98100.00
2022-11-09T18:54:56.876Z,98095.88
2022-11-09T18:57:45.991Z,98100.00
2022-11-09T19:00:34.654Z,98106.47
2022-11-09T19:03:23.582Z,98104.31
2022-11-09T19:06:16.063Z,98104.31
2022-11-09T19:09:19.786Z,98110.59
2022-11-09T19:12:11.025Z,98112.94
2022-11-09T19:14:59.914Z,98125.13
2022-11-09T19:17:48.554Z,98109.81
2022-11-09T19:20:40.691Z,98113.72
2022-11-09T19:23:34.180Z,98118.81
2022-11-09T19:26:26.169Z,98124.72
2022-11-09T19:29:17.520Z,98122.75
2022-11-09T19:32:07.086Z,98140.25
2022-11-09T19:34:55.825Z,98136.50
2022-11-09T19:37:44.505Z,98145.13
2022-11-09T19:40:39.372Z,98147.28
2022-11-09T19:43:31.247Z,98151.03
2022-11-09T19:46:20.926Z,98160.06
2022-11-09T19:49:10.009Z,98158.88
2022-11-09T19:51:58.970Z,98166.16
2022-11-09T19:54:47.506Z,98170.09
2022-11-09T19:57:36.057Z,98179.09
2022-11-09T20:00:27.264Z,98183.03
2022-11-09T20:03:16.070Z,98177.75
2022-11-09T20:06:06.469Z,98193.25
2022-11-09T20:08:55.859Z,98191.13
2022-11-09T20:11:57.078Z,98196.22
2022-11-09T20:14:45.884Z,98199.16
2022-11-09T20:17:37.105Z,98206.22
2022-11-09T20:20:25.893Z,98210.34
2022-11-09T20:23:19.041Z,98210.53
2022-11-09T20:26:14.101Z,98218.19
2022-11-09T20:29:02.806Z,98216.03
2022-11-09T20:31:52.108Z,98220.13
2022-11-09T20:34:43.485Z,98218.78
2022-11-09T20:37:32.098Z,98232.72
2022-11-09T20:40:21.527Z,98231.72
2022-11-09T20:43:10.225Z,98231.94
2022-11-09T20:45:59.574Z,98240.56
2022-11-09T20:48:55.962Z,98243.88
2022-11-09T20:51:47.502Z,98246.06
2022-11-09T20:54:35.955Z,98253.94
2022-11-09T20:57:24.311Z,98250.59
2022-11-09T21:00:18.149Z,98258.06
2022-11-09T21:03:09.853Z,98262.19
2022-11-09T21:05:59.672Z,98263.75
2022-11-09T21:08:54.494Z,98274.97
2022-11-09T21:12:03.038Z,98277.69
2022-11-09T21:14:51.401Z,98266.88
2022-11-09T21:17:39.963Z,98274.34
2022-11-09T21:20:28.631Z,98271.00
2022-11-09T21:23:29.716Z,98277.13
2022-11-09T21:26:33.221Z,98278.66
2022-11-09T21:29:37.575Z,98276.50
2022-11-09T21:32:27.039Z,98274.53
2022-11-09T21:35:15.738Z,98273.56
2022-11-09T21:38:04.294Z,98285.31
2022-11-09T21:40:53.661Z,98283.56
2022-11-09T21:43:45.246Z,98279.00
2022-11-09T21:46:34.321Z,98288.81
2022-11-09T21:49:22.769Z,98292.31
2022-11-09T21:52:11.400Z,98304.06
2022-11-09T21:55:00.124Z,98306.97
2022-11-09T21:57:51.778Z,98313.94
2022-11-09T22:00:43.484Z,98310.94
2022-11-09T22:03:32.568Z,98305.47
2022-11-09T22:06:21.796Z,98315.69
2022-11-09T22:09:15.674Z,98318.22
2022-11-09T22:12:16.779Z,98327.09
2022-11-09T22:15:17.693Z,98318.50
2022-11-09T22:18:29.219Z,98319.06
2022-11-09T22:21:15.197Z,98320.59
2022-11-09T22:24:05.270Z,98319.38
2022-11-09T22:26:54.579Z,98319.38
2022-11-09T22:29:43.849Z,98322.13
2022-11-09T22:32:32.235Z,98331.75
2022-11-09T22:35:23.675Z,98336.28
2022-11-09T22:38:12.363Z,98340.56
2022-11-09T22:41:04.225Z,98342.72
2022-11-09T22:43:54.011Z,98350.38
2022-11-09T22:46:45.274Z,98341.56
2022-11-09T22:49:36.676Z,98356.31
2022-11-09T22:52:28.166Z,98374.31
2022-11-09T22:55:18.422Z,98375.09
2022-11-09T22:58:07.013Z,98370.78
2022-11-09T23:00:56.087Z,98382.19
2022-11-09T23:03:45.607Z,98384.53
2022-11-09T23:06:35.879Z,98384.91
2022-11-09T23:09:27.047Z,98388.78
2022-11-09T23:12:15.808Z,98394.25
2022-11-09T23:15:12.745Z,98407.00
2022-11-09T23:18:14.461Z,98412.28
2022-11-09T23:21:03.202Z,98419.00
2022-11-09T23:23:52.674Z,98424.03
2022-11-09T23:26:43.633Z,98426.22
2022-11-09T23:29:32.391Z,98435.78
2022-11-09T23:32:20.777Z,98446.16
2022-11-09T23:35:11.153Z,98443.59
2022-11-09T23:38:04.168Z,98446.50
2022-11-09T23:40:53.239Z,98445.78
2022-11-09T23:43:49.261Z,98447.13
2022-11-09T23:46:38.488Z,98439.97
2022-11-09T23:49:27.182Z,98444.44
2022-11-09T23:52:15.898Z,98444.44
2022-11-09T23:55:04.715Z,98444.38
2022-11-09T23:57:53.414Z,98442.16
